createdAt,value
2017-10-24T00:01:11.828Z,15.90
2017-10-24T00:03:39.226Z,13.83
2017-10-24T00:06:06.634Z,12.80
2017-10-24T00:08:34.143Z,13.50
2017-10-24T00:11:01.544Z,15.43
2017-10-24T00:13:28.968Z,16.20
2017-10-24T00:15:56.372Z,14.40
2017-10-24T00:18:23.795Z,13.70
2017-10-24T00:20:51.196Z,14.87
2017-10-24T00:23:18.611Z,15.33
2017-10-24T00:25:46.021Z,18.30
2017-10-24T00:28:13.429Z,17.47
2017-10-24T00:30:40.828Z,16.20
2017-10-24T00:33:08.253Z,17.87
2017-10-24T00:35:35.656Z,16.57
2017-10-24T00:38:03.086Z,17.93
2017-10-24T00:40:30.499Z,16.20
2017-10-24T00:42:57.906Z,15.63
2017-10-24T00:45:25.332Z,19.10
2017-10-24T00:47:52.746Z,17.57
2017-10-24T00:50:20.156Z,18.90
2017-10-24T00:52:47.559Z,28.33
2017-10-24T00:55:14.994Z,17.57
2017-10-24T00:57:42.402Z,24.00
2017-10-24T01:00:09.807Z,15.50
2017-10-24T01:02:37.227Z,16.63
2017-10-24T01:05:04.638Z,16.10
2017-10-24T01:07:32.042Z,15.23
2017-10-24T01:09:59.467Z,17.37
2017-10-24T01:12:26.867Z,17.90
2017-10-24T01:14:54.292Z,20.53
2017-10-24T01:17:21.706Z,18.57
2017-10-24T01:19:49.115Z,20.60
2017-10-24T01:22:16.550Z,19.00
2017-10-24T01:24:43.964Z,17.70
2017-10-24T01:27:11.386Z,17.27
2017-10-24T01:29:38.789Z,17.97
2017-10-24T01:32:06.212Z,19.83
2017-10-24T01:34:33.622Z,16.53
2017-10-24T01:37:01.035Z,16.00
2017-10-24T01:39:28.508Z,18.77
2017-10-24T01:41:55.913Z,16.40
2017-10-24T01:44:23.334Z,19.10
2017-10-24T01:46:50.767Z,17.20
2017-10-24T01:49:18.168Z,19.50
2017-10-24T01:51:45.591Z,18.80
2017-10-24T01:54:12.990Z,17.47
2017-10-24T01:56:40.396Z,21.47
2017-10-24T01:59:07.813Z,20.33
2017-10-24T02:01:35.223Z,15.27
2017-10-24T02:04:02.637Z,19.97
2017-10-24T02:06:30.050Z,18.70
2017-10-24T02:08:57.458Z,23.43
2017-10-24T02:11:24.884Z,24.67
2017-10-24T02:13:52.295Z,21.93
2017-10-24T02:16:19.702Z,21.17
2017-10-24T02:18:47.112Z,20.30
2017-10-24T02:21:14.517Z,24.50
2017-10-24T02:23:41.937Z,20.63
2017-10-24T02:26:09.340Z,27.90
2017-10-24T02:28:36.763Z,18.50
2017-10-24T02:31:04.242Z,22.83
2017-10-24T02:33:31.669Z,19.73
2017-10-24T02:35:59.075Z,20.43
2017-10-24T02:38:26.479Z,23.53
2017-10-24T02:40:53.906Z,20.80
2017-10-24T02:43:21.306Z,23.37
2017-10-24T02:45:48.717Z,25.73
2017-10-24T02:48:16.119Z,26.70
2017-10-24T02:50:43.805Z,28.83
2017-10-24T02:53:11.232Z,28.87
2017-10-24T02:55:38.646Z,26.50
2017-10-24T02:58:06.069Z,24.80
2017-10-24T03:00:33.475Z,28.20
2017-10-24T03:03:00.898Z,26.60
2017-10-24T03:05:28.310Z,19.83
2017-10-24T03:07:55.726Z,23.37
2017-10-24T03:10:23.264Z,27.83
2017-10-24T03:12:50.679Z,22.67
2017-10-24T03:15:18.121Z,24.87
2017-10-24T03:17:45.545Z,29.03
2017-10-24T03:20:12.952Z,25.53
2017-10-24T03:22:40.369Z,20.73
2017-10-24T03:25:07.783Z,25.30
2017-10-24T03:27:35.198Z,26.10
2017-10-24T03:30:02.600Z,23.07
2017-10-24T03:32:30.010Z,24.50
2017-10-24T03:34:57.417Z,24.10
2017-10-24T03:37:24.816Z,22.67
2017-10-24T03:39:52.240Z,23.20
2017-10-24T03:42:19.649Z,25.43
2017-10-24T03:44:47.053Z,25.27
2017-10-24T03:47:14.472Z,24.80
2017-10-24T03:49:41.882Z,21.33
2017-10-24T03:52:09.294Z,20.33
2017-10-24T03:54:36.709Z,21.63
2017-10-24T03:57:04.404Z,17.53
2017-10-24T03:59:31.805Z,20.33
2017-10-24T04:01:59.227Z,17.10
2017-10-24T04:04:26.660Z,28.07
2017-10-24T04:06:54.071Z,18.30
2017-10-24T04:09:21.484Z,16.10
2017-10-24T04:11:48.886Z,20.40
2017-10-24T04:14:16.326Z,20.97
2017-10-24T04:16:43.735Z,20.33
2017-10-24T04:19:11.117Z,15.13
2017-10-24T04:21:38.544Z,20.73
2017-10-24T04:24:05.950Z,21.97
2017-10-24T04:26:33.398Z,17.07
2017-10-24T04:29:00.808Z,20.87
2017-10-24T04:31:28.225Z,19.73
2017-10-24T04:33:55.633Z,21.57
2017-10-24T04:36:23.038Z,13.50
2017-10-24T04:38:50.604Z,18.70
2017-10-24T04:41:18.090Z,22.00
2017-10-24T04:43:45.485Z,18.53
2017-10-24T04:46:12.905Z,17.33
2017-10-24T04:48:40.322Z,13.47
2017-10-24T04:51:07.829Z,16.90
2017-10-24T04:53:35.257Z,12.70
2017-10-24T04:56:02.745Z,17.03
2017-10-24T04:58:30.177Z,13.03
2017-10-24T05:00:57.641Z,14.73
2017-10-24T05:03:25.083Z,13.77
2017-10-24T05:05:52.515Z,10.97
2017-10-24T05:08:19.963Z,11.40
2017-10-24T05:10:47.350Z,17.40
2017-10-24T05:13:14.789Z,15.90
2017-10-24T05:15:42.207Z,13.30
2017-10-24T05:18:09.607Z,11.77
2017-10-24T05:20:37.048Z,12.93
2017-10-24T05:23:04.457Z,17.73
2017-10-24T05:25:31.858Z,14.83
2017-10-24T05:27:59.302Z,11.10
2017-10-24T05:30:26.720Z,14.80
2017-10-24T05:32:54.213Z,12.37
2017-10-24T05:35:21.606Z,11.97
2017-10-24T05:37:49.049Z,13.10
2017-10-24T05:40:16.476Z,14.77
2017-10-24T05:42:43.874Z,12.40
2017-10-24T05:45:11.309Z,20.67
2017-10-24T05:47:38.777Z,17.30
2017-10-24T05:50:06.229Z,16.50
2017-10-24T05:52:33.668Z,14.50
2017-10-24T05:55:01.107Z,14.53
2017-10-24T05:57:29.506Z,14.43
2017-10-24T05:59:56.906Z,14.90
2017-10-24T06:02:24.431Z,15.03
2017-10-24T06:04:51.912Z,14.30
2017-10-24T06:07:19.379Z,15.60
2017-10-24T06:09:47.018Z,17.40
2017-10-24T06:12:14.576Z,13.87
2017-10-24T06:14:42.332Z,16.43
2017-10-24T06:17:09.809Z,17.30
2017-10-24T06:19:37.249Z,18.17
2017-10-24T06:22:04.693Z,14.63
2017-10-24T06:24:32.097Z,15.97
2017-10-24T06:26:59.524Z,14.73
2017-10-24T06:29:26.974Z,17.83
2017-10-24T06:31:54.381Z,15.10
2017-10-24T06:34:21.885Z,17.33
2017-10-24T06:36:49.324Z,22.57
2017-10-24T06:39:16.760Z,19.13
2017-10-24T06:41:44.524Z,17.30
2017-10-24T06:44:11.998Z,16.83
2017-10-24T06:46:39.428Z,17.80
2017-10-24T06:49:06.853Z,16.73
2017-10-24T06:51:34.265Z,22.47
2017-10-24T06:54:02.061Z,16.53
2017-10-24T06:56:29.529Z,16.70
2017-10-24T06:58:56.990Z,17.07
2017-10-24T07:01:24.508Z,15.47
2017-10-24T07:03:51.985Z,17.33
2017-10-24T07:06:19.476Z,14.17
2017-10-24T07:08:47.722Z,12.03
2017-10-24T07:11:15.208Z,10.93
2017-10-24T07:13:42.707Z,15.67
2017-10-24T07:16:10.180Z,15.50
2017-10-24T07:18:37.660Z,16.53
2017-10-24T07:21:05.064Z,20.37
2017-10-24T07:23:32.489Z,15.63
2017-10-24T07:25:59.916Z,14.43
2017-10-24T07:28:27.378Z,11.23
2017-10-24T07:30:54.782Z,10.17
2017-10-24T07:33:22.244Z,9.90
2017-10-24T07:35:49.726Z,14.70
2017-10-24T07:38:17.170Z,11.27
2017-10-24T07:40:44.779Z,10.83
2017-10-24T07:43:12.238Z,7.83
2017-10-24T07:45:39.699Z,12.07
2017-10-24T07:48:07.124Z,12.67
2017-10-24T07:50:34.559Z,10.33
2017-10-24T07:53:01.992Z,9.30
2017-10-24T07:55:29.501Z,10.33
2017-10-24T07:57:56.940Z,12.50
2017-10-24T08:00:24.366Z,6.50
2017-10-24T08:02:51.888Z,7.30
2017-10-24T08:05:19.757Z,5.83
2017-10-24T08:07:47.276Z,11.33
2017-10-24T08:10:14.770Z,8.27
2017-10-24T08:12:42.421Z,11.53
2017-10-24T08:15:09.893Z,6.00
2017-10-24T08:17:37.412Z,8.77
2017-10-24T08:20:04.890Z,6.53
2017-10-24T08:22:32.336Z,5.10
2017-10-24T08:24:59.804Z,6.30
2017-10-24T08:27:27.247Z,6.63
2017-10-24T08:29:54.979Z,5.30
2017-10-24T08:32:22.381Z,6.40
2017-10-24T08:34:49.863Z,5.20
2017-10-24T08:37:17.317Z,5.00
2017-10-24T08:39:44.756Z,4.70
2017-10-24T08:42:12.335Z,6.80
2017-10-24T08:44:39.751Z,5.97
2017-10-24T08:47:07.168Z,5.30
2017-10-24T08:49:34.589Z,4.40
2017-10-24T08:52:01.997Z,4.10
2017-10-24T08:54:29.442Z,4.70
2017-10-24T08:56:56.892Z,3.70
2017-10-24T08:59:24.379Z,4.70
2017-10-24T09:01:51.807Z,3.70
2017-10-24T09:04:19.270Z,4.23
2017-10-24T09:06:46.770Z,3.30
2017-10-24T09:12:23.112Z,3.20
2017-10-24T09:14:50.508Z,3.03
2017-10-24T09:17:40.928Z,3.37
2017-10-24T09:20:09.117Z,4.53
2017-10-24T09:22:36.536Z,3.07
2017-10-24T09:25:03.944Z,2.27
2017-10-24T09:27:31.378Z,2.73
2017-10-24T09:29:58.840Z,3.20
2017-10-24T09:32:42.996Z,3.17
2017-10-24T09:35:11.290Z,3.20
2017-10-24T09:37:38.743Z,2.80
2017-10-24T09:40:06.248Z,1.87
2017-10-24T09:42:33.712Z,2.67
2017-10-24T09:45:01.285Z,6.60
2017-10-24T09:47:28.721Z,2.60
2017-10-24T09:49:57.515Z,3.20
2017-10-24T09:52:24.967Z,3.07
2017-10-24T09:54:52.399Z,3.70
2017-10-24T09:57:19.820Z,3.13
2017-10-24T09:59:47.236Z,5.50
2017-10-24T10:02:14.739Z,2.80
2017-10-24T10:04:42.309Z,3.90
2017-10-24T10:07:10.657Z,3.13
2017-10-24T10:09:38.126Z,2.90
2017-10-24T10:12:09.440Z,2.57
2017-10-24T10:14:36.922Z,4.90
2017-10-24T10:17:04.380Z,2.33
2017-10-24T10:19:31.830Z,2.77
2017-10-24T10:21:59.587Z,3.20
2017-10-24T10:24:30.516Z,4.23
2017-10-24T10:26:57.955Z,4.70
2017-10-24T10:29:25.391Z,3.23
2017-10-24T10:31:52.833Z,2.77
2017-10-24T10:34:20.261Z,4.53
2017-10-24T10:36:47.699Z,3.53
2017-10-24T10:39:15.113Z,3.60
2017-10-24T10:41:42.574Z,4.93
2017-10-24T10:44:09.985Z,5.10
2017-10-24T10:46:37.484Z,3.50
2017-10-24T10:49:05.043Z,8.43
2017-10-24T10:51:32.470Z,3.60
2017-10-24T10:53:59.968Z,5.60
2017-10-24T10:56:27.417Z,6.70
2017-10-24T10:58:54.856Z,5.50
2017-10-24T11:01:22.336Z,2.40
2017-10-24T11:03:51.045Z,2.60
2017-10-24T11:06:18.497Z,4.00
2017-10-24T11:08:46.012Z,3.00
2017-10-24T11:11:13.510Z,3.10
2017-10-24T11:13:40.945Z,3.20
2017-10-24T11:16:08.407Z,3.80
2017-10-24T11:18:35.823Z,2.73
2017-10-24T11:21:03.289Z,3.30
2017-10-24T11:23:30.703Z,2.20
2017-10-24T11:25:58.173Z,1.80
2017-10-24T11:28:25.587Z,1.70
2017-10-24T11:30:52.999Z,1.93
2017-10-24T11:33:20.580Z,2.10
2017-10-24T11:35:47.982Z,2.40
2017-10-24T11:38:15.423Z,2.37
2017-10-24T11:40:42.836Z,3.00
2017-10-24T11:43:10.282Z,2.47
2017-10-24T11:45:37.714Z,2.70
2017-10-24T11:48:05.160Z,9.43
2017-10-24T11:50:32.605Z,3.37
2017-10-24T11:53:00.042Z,2.47
2017-10-24T11:55:29.191Z,3.27
2017-10-24T11:57:56.612Z,5.80
2017-10-24T12:00:24.031Z,2.70
2017-10-24T12:02:51.450Z,3.13
2017-10-24T12:05:19.194Z,2.70
2017-10-24T12:07:46.611Z,11.67
2017-10-24T12:10:14.018Z,3.00
2017-10-24T12:12:41.438Z,3.50
2017-10-24T12:15:08.901Z,4.13
2017-10-24T12:17:36.348Z,4.50
2017-10-24T12:20:03.758Z,3.57
2017-10-24T12:22:31.191Z,5.80
2017-10-24T12:24:58.627Z,5.13
2017-10-24T12:27:26.037Z,9.13
2017-10-24T12:29:53.483Z,5.10
2017-10-24T12:32:20.931Z,5.53
2017-10-24T12:34:48.341Z,5.27
2017-10-24T12:37:15.854Z,9.10
2017-10-24T12:39:43.276Z,5.87
2017-10-24T12:42:13.090Z,6.20
2017-10-24T12:44:43.085Z,5.10
2017-10-24T12:47:18.330Z,5.03
2017-10-24T12:49:51.365Z,5.47
2017-10-24T12:52:18.781Z,6.27
2017-10-24T12:54:46.193Z,5.10
2017-10-24T12:57:17.157Z,6.43
2017-10-24T12:59:44.564Z,4.40
2017-10-24T13:02:12.025Z,5.27
2017-10-24T13:04:39.473Z,5.97
2017-10-24T13:07:07.984Z,5.23
2017-10-24T13:09:35.470Z,3.93
2017-10-24T13:12:02.981Z,4.63
2017-10-24T13:14:30.470Z,6.90
2017-10-24T13:16:57.951Z,6.20
2017-10-24T13:19:25.498Z,6.70
2017-10-24T13:21:52.921Z,5.27
2017-10-24T13:24:20.398Z,6.50
2017-10-24T13:26:47.847Z,6.07
2017-10-24T13:29:15.288Z,7.13
2017-10-24T13:31:42.960Z,7.20
2017-10-24T13:34:10.364Z,8.20
2017-10-24T13:36:37.764Z,7.87
2017-10-24T13:39:05.228Z,12.30
2017-10-24T13:41:32.735Z,8.63
2017-10-24T13:44:00.166Z,9.97
2017-10-24T13:46:27.650Z,10.03
2017-10-24T13:48:55.424Z,11.87
2017-10-24T13:51:22.897Z,13.67
2017-10-24T13:53:50.326Z,11.47
2017-10-24T13:56:17.759Z,8.80
2017-10-24T13:58:45.194Z,8.20
2017-10-24T14:01:12.691Z,7.60
2017-10-24T14:03:40.122Z,9.00
2017-10-24T14:06:13.141Z,15.80
2017-10-24T14:08:46.354Z,10.67
2017-10-24T14:11:14.067Z,9.13
2017-10-24T14:13:41.506Z,10.67
2017-10-24T14:16:08.961Z,10.57
2017-10-24T14:18:36.378Z,13.03
2017-10-24T14:21:04.594Z,15.37
2017-10-24T14:23:32.059Z,10.10
2017-10-24T14:25:59.455Z,13.77
2017-10-24T14:28:26.902Z,12.50
2017-10-24T14:30:54.326Z,11.03
2017-10-24T14:33:21.726Z,9.27
2017-10-24T14:35:49.163Z,13.60
2017-10-24T14:38:16.681Z,13.03
2017-10-24T14:40:44.158Z,14.30
2017-10-24T14:43:11.608Z,17.00
2017-10-24T14:45:39.020Z,15.67
2017-10-24T14:48:06.516Z,16.60
2017-10-24T14:50:33.978Z,11.40
2017-10-24T14:53:01.817Z,13.97
2017-10-24T14:55:29.325Z,12.83
2017-10-24T14:57:56.764Z,15.30
2017-10-24T15:00:24.592Z,18.47
2017-10-24T15:02:53.856Z,15.03
2017-10-24T15:05:21.326Z,14.23
2017-10-24T15:07:48.949Z,13.40
2017-10-24T15:10:17.463Z,12.57
2017-10-24T15:12:45.316Z,13.40
2017-10-24T15:15:12.746Z,13.10
2017-10-24T15:17:40.601Z,13.90
2017-10-24T15:20:08.111Z,10.50
2017-10-24T15:22:35.510Z,11.20
2017-10-24T15:25:03.051Z,10.33
2017-10-24T15:27:35.053Z,10.97
2017-10-24T15:30:02.565Z,11.50
2017-10-24T15:32:30.032Z,14.23
2017-10-24T15:34:57.465Z,11.67
2017-10-24T15:37:24.936Z,8.17
2017-10-24T15:39:52.486Z,10.10
2017-10-24T15:42:19.902Z,11.90
2017-10-24T15:44:47.345Z,8.80
2017-10-24T15:47:14.824Z,11.40
2017-10-24T15:49:42.257Z,18.40
2017-10-24T15:52:09.714Z,13.13
2017-10-24T15:54:37.123Z,11.00
2017-10-24T15:57:04.565Z,11.80
2017-10-24T15:59:32.028Z,11.07
2017-10-24T16:01:59.560Z,10.63
2017-10-24T16:04:27.018Z,12.50
2017-10-24T16:06:54.483Z,11.13
2017-10-24T16:09:21.926Z,10.90
2017-10-24T16:11:49.335Z,12.57
2017-10-24T16:14:17.458Z,13.70
2017-10-24T16:16:44.885Z,10.20
2017-10-24T16:19:12.395Z,14.30
2017-10-24T16:21:39.841Z,11.03
2017-10-24T16:24:07.279Z,14.10
2017-10-24T16:26:34.750Z,13.60
2017-10-24T16:29:02.551Z,13.43
2017-10-24T16:31:29.989Z,10.37
2017-10-24T16:33:57.505Z,12.10
2017-10-24T16:36:25.002Z,12.57
2017-10-24T16:38:52.445Z,13.13
2017-10-24T16:41:21.009Z,13.13
2017-10-24T16:43:48.463Z,12.40
2017-10-24T16:46:15.935Z,16.97
2017-10-24T16:48:43.353Z,12.90
2017-10-24T16:51:10.847Z,14.40
2017-10-24T16:53:38.253Z,14.17
2017-10-24T16:56:05.876Z,14.30
2017-10-24T16:58:33.360Z,13.57
2017-10-24T17:01:00.933Z,11.33
2017-10-24T17:03:28.361Z,10.47
2017-10-24T17:05:55.798Z,13.43
2017-10-24T17:08:23.277Z,14.60
2017-10-24T17:10:50.719Z,10.80
2017-10-24T17:13:18.126Z,15.63
2017-10-24T17:15:45.556Z,11.20
2017-10-24T17:18:12.981Z,13.07
2017-10-24T17:20:40.403Z,11.50
2017-10-24T17:23:07.810Z,12.90
2017-10-24T17:25:35.230Z,13.30
2017-10-24T17:28:02.685Z,14.07
2017-10-24T17:30:30.153Z,14.60
2017-10-24T17:32:57.549Z,13.33
2017-10-24T17:35:25.001Z,13.77
2017-10-24T17:37:52.409Z,12.60
2017-10-24T17:40:19.856Z,12.47
2017-10-24T17:42:47.264Z,13.00
2017-10-24T17:45:14.681Z,13.17
2017-10-24T17:47:42.117Z,13.47
2017-10-24T17:50:09.535Z,13.30
2017-10-24T17:52:36.994Z,12.73
2017-10-24T17:55:04.408Z,12.30
2017-10-24T17:57:31.849Z,10.70
2017-10-24T17:59:59.346Z,11.80
2017-10-24T18:02:26.762Z,11.20
2017-10-24T18:04:54.172Z,13.57
2017-10-24T18:07:21.615Z,13.77
2017-10-24T18:09:49.052Z,10.83
2017-10-24T18:12:16.513Z,11.97
2017-10-24T18:14:43.946Z,14.93
2017-10-24T18:17:11.691Z,17.40
2017-10-24T18:19:39.189Z,14.77
2017-10-24T18:22:06.598Z,17.80
2017-10-24T18:24:34.048Z,15.47
2017-10-24T18:27:01.450Z,14.93
2017-10-24T18:29:29.294Z,16.63
2017-10-24T18:31:56.702Z,18.63
2017-10-24T18:34:24.156Z,16.97
2017-10-24T18:36:51.596Z,18.77
2017-10-24T18:39:19.091Z,15.60
2017-10-24T18:41:46.502Z,17.10
2017-10-24T18:44:13.926Z,16.57
2017-10-24T18:46:41.364Z,15.43
2017-10-24T18:49:08.800Z,14.30
2017-10-24T18:51:36.280Z,14.60
2017-10-24T18:54:03.680Z,15.30
2017-10-24T18:56:31.118Z,22.00
2017-10-24T18:58:58.524Z,17.80
2017-10-24T19:01:26.056Z,20.20
2017-10-24T19:03:53.492Z,17.37
2017-10-24T19:06:20.918Z,19.87
2017-10-24T19:08:48.376Z,18.70
2017-10-24T19:11:15.777Z,20.37
2017-10-24T19:13:43.317Z,21.13
2017-10-24T19:16:10.785Z,20.57
2017-10-24T19:18:38.205Z,23.73
2017-10-24T19:21:05.632Z,22.77
2017-10-24T19:23:33.039Z,22.40
2017-10-24T19:26:00.475Z,26.60
2017-10-24T19:28:28.019Z,24.97
2017-10-24T19:30:55.474Z,27.37
2017-10-24T19:33:22.984Z,25.50
2017-10-24T19:35:50.472Z,25.07
2017-10-24T19:38:17.869Z,23.80
2017-10-24T19:40:45.305Z,28.73
2017-10-24T19:43:12.741Z,33.00
2017-10-24T19:45:40.207Z,28.17
2017-10-24T19:48:07.640Z,30.50
2017-10-24T19:50:35.270Z,28.63
2017-10-24T19:53:02.847Z,28.70
2017-10-24T19:55:30.299Z,29.30
2017-10-24T19:57:57.738Z,31.90
2017-10-24T20:00:25.172Z,29.13
2017-10-24T20:02:52.589Z,37.33
2017-10-24T20:05:20.016Z,35.90
2017-10-24T20:07:47.427Z,35.80
2017-10-24T20:10:14.879Z,28.97
2017-10-24T20:12:42.277Z,34.57
2017-10-24T20:15:09.693Z,34.30
2017-10-24T20:17:37.162Z,37.23
2017-10-24T20:20:04.619Z,36.47
2017-10-24T20:22:32.055Z,38.97
2017-10-24T20:24:59.524Z,33.33
2017-10-24T20:27:27.093Z,28.40
2017-10-24T20:29:54.554Z,31.17
2017-10-24T20:32:21.980Z,32.27
2017-10-24T20:34:49.394Z,33.83
2017-10-24T20:37:16.920Z,33.27
2017-10-24T20:39:44.565Z,32.80
2017-10-24T20:42:12.050Z,33.33
2017-10-24T20:44:39.470Z,28.87
2017-10-24T20:47:06.890Z,26.40
2017-10-24T20:49:34.316Z,28.80
2017-10-24T20:52:01.731Z,24.57
2017-10-24T20:54:29.532Z,26.50
2017-10-24T20:56:56.950Z,28.90
2017-10-24T20:59:24.623Z,28.17
2017-10-24T21:01:52.077Z,26.23
2017-10-24T21:04:19.505Z,27.57
2017-10-24T21:06:47.286Z,25.50
2017-10-24T21:09:14.723Z,25.43
2017-10-24T21:11:42.146Z,30.00
2017-10-24T21:14:09.625Z,23.07
2017-10-24T21:16:37.036Z,22.10
2017-10-24T21:19:04.451Z,24.70
2017-10-24T21:21:31.936Z,17.03
2017-10-24T21:23:59.345Z,19.73
2017-10-24T21:26:26.784Z,24.90
2017-10-24T21:28:54.217Z,37.43
2017-10-24T21:31:21.617Z,20.93
2017-10-24T21:33:49.058Z,28.93
2017-10-24T21:36:16.516Z,26.80
2017-10-24T21:38:43.952Z,24.20
2017-10-24T21:41:11.426Z,24.97
2017-10-24T21:43:40.493Z,23.27
2017-10-24T21:46:07.964Z,22.23
2017-10-24T21:48:35.499Z,24.90
2017-10-24T21:51:02.951Z,22.67
2017-10-24T21:53:30.385Z,29.07
2017-10-24T21:55:57.847Z,25.73
2017-10-24T21:58:25.266Z,23.30
2017-10-24T22:00:52.697Z,21.70
2017-10-24T22:03:20.129Z,24.97
2017-10-24T22:05:48.341Z,24.90
2017-10-24T22:08:15.783Z,23.20
2017-10-24T22:10:43.282Z,25.03
2017-10-24T22:13:10.713Z,24.17
2017-10-24T22:15:38.148Z,25.20
2017-10-24T22:18:05.559Z,22.50
2017-10-24T22:20:32.968Z,22.57
2017-10-24T22:23:00.384Z,25.80
2017-10-24T22:25:27.853Z,18.33
2017-10-24T22:27:55.339Z,23.53
2017-10-24T22:30:22.745Z,23.13
2017-10-24T22:32:50.174Z,19.47
2017-10-24T22:35:17.592Z,21.17
2017-10-24T22:37:45.014Z,23.73
2017-10-24T22:40:12.442Z,24.50
2017-10-24T22:42:39.873Z,23.37
2017-10-24T22:45:07.336Z,25.07
2017-10-24T22:47:34.768Z,20.77
2017-10-24T22:50:02.179Z,21.60
2017-10-24T22:52:29.609Z,22.13
2017-10-24T22:54:57.026Z,25.23
2017-10-24T22:57:24.452Z,21.70
2017-10-24T22:59:51.850Z,24.37
2017-10-24T23:02:19.323Z,29.10
2017-10-24T23:04:46.746Z,27.90
2017-10-24T23:07:14.159Z,21.80
2017-10-24T23:09:41.596Z,28.60
2017-10-24T23:12:09.002Z,33.33
2017-10-24T23:14:36.417Z,30.17
2017-10-24T23:17:03.834Z,23.10
2017-10-24T23:19:31.247Z,25.70
2017-10-24T23:21:58.657Z,24.50
2017-10-24T23:24:26.104Z,19.97
2017-10-24T23:26:53.528Z,31.70
2017-10-24T23:29:21.256Z,21.67
2017-10-24T23:31:48.705Z,20.50
2017-10-24T23:34:16.243Z,22.40
2017-10-24T23:36:43.675Z,21.27
2017-10-24T23:39:11.179Z,24.53
2017-10-24T23:41:38.620Z,23.93
2017-10-24T23:44:06.062Z,22.00
2017-10-24T23:46:33.473Z,20.03
2017-10-24T23:49:00.944Z,19.63
2017-10-24T23:51:28.377Z,21.37
2017-10-24T23:53:55.784Z,21.90
2017-10-24T23:56:23.202Z,20.90
2017-10-24T23:58:50.635Z,17.90
